Time;durP1;ratioP1;P1;durP2;ratioP2;P2;SDS_P1;SDS_P2;PMS_P1;PMS_P2;Temp;Humidity;BMP_temperature;BMP_pressure;BME280_temperature;BME280_humidity;BME280_pressure;Samples;Min_cycle;Max_cycle;Signal;HPM_P1;HPM_P2
2023/01/24 00:02:07;;;;;;;27.37;21.53;;;3.80;99.90;;;;;;5162184;27;20463;-80
2023/01/24 00:04:41;;;;;;;28.20;21.53;;;3.60;99.90;;;;;;5162193;27;20444;-79
2023/01/24 00:07:16;;;;;;;29.60;21.97;;;3.50;99.90;;;;;;5160689;27;20459;-79
2023/01/24 00:10:09;;;;;;;28.80;21.77;;;3.70;99.90;;;;;;5144686;27;20427;-81
2023/01/24 00:13:02;;;;;;;30.93;21.77;;;3.40;99.90;;;;;;5162209;27;20471;-81
2023/01/24 00:15:29;;;;;;;27.37;20.20;;;3.50;99.90;;;;;;5161867;27;20438;-81
2023/01/24 00:18:00;;;;;;;24.40;19.77;;;3.40;99.90;;;;;;5162418;27;20448;-80
2023/01/24 00:20:52;;;;;;;24.87;20.00;;;3.60;99.90;;;;;;5159511;27;20452;-79
2023/01/24 00:23:42;;;;;;;26.20;20.30;;;3.40;99.90;;;;;;5161359;27;20206;-79
2023/01/24 00:26:21;;;;;;;30.07;21.30;;;3.50;99.90;;;;;;5161096;27;20511;-80
2023/01/24 00:29:13;;;;;;;25.87;19.90;;;3.50;99.90;;;;;;5162020;27;20458;-81
2023/01/24 00:35:17;;;;;;;27.03;20.07;;;3.40;99.90;;;;;;5160386;27;20507;-80
2023/01/24 00:38:12;;;;;;;27.13;19.57;;;3.40;99.90;;;;;;5161495;27;20467;-80
2023/01/24 00:40:42;;;;;;;26.23;18.87;;;3.50;99.90;;;;;;5162395;27;20484;-79
2023/01/24 00:43:32;;;;;;;24.03;19.37;;;3.60;99.90;;;;;;5162164;27;20397;-79
2023/01/24 00:46:17;;;;;;;23.17;18.13;;;3.60;99.90;;;;;;5161620;27;20511;-81
2023/01/24 00:48:56;;;;;;;26.40;19.20;;;3.50;99.90;;;;;;5161252;27;20515;-80
2023/01/24 00:52:08;;;;;;;24.07;18.33;;;3.40;99.90;;;;;;5161421;27;20411;-80
2023/01/24 00:54:45;;;;;;;27.83;19.53;;;3.50;99.90;;;;;;5158834;27;20420;-81
2023/01/24 01:01:21;;;;;;;26.60;18.97;;;3.70;99.90;;;;;;5161185;27;20403;-80
2023/01/24 01:06:47;;;;;;;25.40;18.23;;;3.50;99.90;;;;;;5161537;27;20450;-80
2023/01/24 01:09:21;;;;;;;26.33;18.30;;;3.60;99.90;;;;;;5161740;27;20434;-80
2023/01/24 01:12:04;;;;;;;23.23;18.47;;;3.50;99.90;;;;;;5142834;27;20449;-81
2023/01/24 01:14:58;;;;;;;25.13;18.70;;;3.50;99.90;;;;;;5161667;27;20455;-80
2023/01/24 01:21:02;;;;;;;28.03;19.97;;;3.70;99.90;;;;;;5162183;27;20164;-78
2023/01/24 01:30:16;;;;;;;25.97;18.97;;;3.60;99.90;;;;;;5161631;27;20175;-80
2023/01/24 01:33:24;;;;;;;24.53;18.57;;;3.60;99.90;;;;;;5142166;27;20200;-80
2023/01/24 01:36:45;;;;;;;22.70;16.73;;;3.60;99.90;;;;;;5118556;28;20445;-80
2023/01/24 01:40:04;;;;;;;22.80;16.60;;;3.60;99.90;;;;;;5119328;28;20172;-80
2023/01/24 01:42:53;;;;;;;23.00;18.27;;;3.60;99.90;;;;;;5118549;28;20457;-80
2023/01/24 01:45:57;;;;;;;24.03;17.80;;;3.50;99.90;;;;;;5118212;28;20461;-79
2023/01/24 01:48:43;;;;;;;21.53;16.73;;;3.40;99.90;;;;;;5117812;28;20497;-81
2023/01/24 01:52:10;;;;;;;27.05;24.25;;;3.30;99.90;;;;;;5116283;28;20489;-80
2023/01/24 01:55:19;;;;;;;23.90;19.10;;;3.50;99.90;;;;;;5144072;27;20199;-80
2023/01/24 01:57:53;;;;;;;24.33;18.10;;;3.30;99.90;;;;;;5160385;27;20503;-81
2023/01/24 02:18:46;;;;;;;24.50;19.77;;;3.30;99.90;;;;;;5158871;27;20445;-80
2023/01/24 02:21:30;;;;;;;23.17;19.27;;;3.30;99.90;;;;;;5159438;27;20475;-80
2023/01/24 02:24:32;;;;;;;27.60;19.67;;;3.40;99.90;;;;;;5159790;27;20511;-79
2023/01/24 02:27:18;;;;;;;25.13;19.80;;;3.40;99.90;;;;;;5143793;27;20435;-80
2023/01/24 02:30:16;;;;;;;24.93;18.90;;;3.50;99.90;;;;;;5159375;27;20507;-80
2023/01/24 02:33:14;;;;;;;24.30;18.17;;;3.60;99.90;;;;;;5158847;27;20447;-80
2023/01/24 02:36:15;;;;;;;24.37;18.00;;;3.60;99.90;;;;;;5159157;27;20499;-80
2023/01/24 02:39:01;;;;;;;23.20;18.30;;;3.40;99.90;;;;;;5159352;27;20424;-79
2023/01/24 02:42:08;;;;;;;23.77;18.43;;;3.40;99.90;;;;;;5159942;27;20535;-81
2023/01/24 02:45:22;;;;;;;22.97;17.97;;;3.30;99.90;;;;;;5158729;27;20184;-80
2023/01/24 02:55:15;;;;;;;24.60;18.57;;;3.50;99.90;;;;;;5114629;28;20410;-80
2023/01/24 03:01:06;;;;;;;23.50;17.60;;;3.30;99.90;;;;;;5118275;28;20401;-80
2023/01/24 03:03:39;;;;;;;23.20;17.77;;;3.30;99.90;;;;;;5117036;28;20434;-81
2023/01/24 03:06:10;;;;;;;24.57;18.67;;;3.30;99.90;;;;;;5151556;27;20432;-80
2023/01/24 03:08:39;;;;;;;23.30;18.23;;;3.30;99.90;;;;;;5160288;27;20432;-81
2023/01/24 04:09:58;;;;;;;27.52;24.80;;;3.70;99.90;;;;;;5141599;28;20407;-80
2023/01/24 04:15:48;;;;;;;25.67;18.73;;;3.50;99.90;;;;;;5142879;28;20630;-80
2023/01/24 04:21:39;;;;;;;26.53;19.20;;;3.50;99.90;;;;;;5142568;28;20474;-80
2023/01/24 04:31:39;;;;;;;25.33;17.90;;;3.40;99.90;;;;;;5142355;28;20409;-80
2023/01/24 04:34:36;;;;;;;24.90;18.27;;;3.50;99.90;;;;;;5141652;28;20181;-81
2023/01/24 04:37:28;;;;;;;25.73;17.83;;;3.30;99.90;;;;;;5141978;28;20468;-79
2023/01/24 04:43:22;;;;;;;23.13;16.50;;;3.30;99.90;;;;;;5141038;28;20467;-80
2023/01/24 04:45:59;;;;;;;21.83;16.40;;;3.20;99.90;;;;;;5141483;28;20433;-81
2023/01/24 04:48:48;;;;;;;22.83;17.20;;;3.30;99.90;;;;;;5141827;28;20412;-79
2023/01/24 04:51:59;;;;;;;22.50;15.83;;;3.30;99.90;;;;;;5141823;28;20436;-80
2023/01/24 04:57:50;;;;;;;23.70;16.00;;;3.10;99.90;;;;;;5141559;28;20392;-80
2023/01/24 05:03:43;;;;;;;22.40;16.83;;;3.30;99.90;;;;;;5141469;28;20471;-80
2023/01/24 05:12:53;;;;;;;21.17;16.80;;;3.10;99.90;;;;;;5120835;28;20429;-80
2023/01/24 05:15:53;;;;;;;22.47;16.40;;;3.20;99.90;;;;;;5120132;28;20935;-80
2023/01/24 05:18:23;;;;;;;21.50;15.97;;;3.30;99.90;;;;;;5120390;28;20518;-80
2023/01/24 05:24:27;;;;;;;20.60;15.50;;;3.20;99.90;;;;;;5120571;28;20430;-78
2023/01/24 05:30:18;;;;;;;21.53;14.60;;;3.10;99.90;;;;;;5120412;28;20413;-79
2023/01/24 05:39:37;;;;;;;23.10;16.70;;;3.20;99.90;;;;;;5120548;28;20227;-82
2023/01/24 05:42:23;;;;;;;21.40;16.80;;;3.20;99.90;;;;;;5123404;28;20459;-80
2023/01/24 05:45:23;;;;;;;23.20;16.83;;;3.40;99.90;;;;;;5137722;28;20200;-80
2023/01/24 05:47:51;;;;;;;21.70;16.40;;;3.50;99.90;;;;;;5132024;28;20292;-79
2023/01/24 05:50:38;;;;;;;21.70;16.17;;;3.40;99.90;;;;;;5113392;28;20208;-81
2023/01/24 05:53:06;;;;;;;21.83;15.77;;;3.20;99.90;;;;;;5133287;28;20484;-80
2023/01/24 05:55:35;;;;;;;21.93;16.20;;;3.20;99.90;;;;;;5131098;28;20204;-80
2023/01/24 05:58:08;;;;;;;21.13;15.60;;;3.20;99.90;;;;;;5124667;28;20205;-80
2023/01/24 06:00:54;;;;;;;22.33;16.52;;;3.10;99.90;;;;;;5125659;28;20343;-80
2023/01/24 06:03:28;;;;;;;19.90;15.70;;;3.10;99.90;;;;;;5125379;28;20235;-80
2023/01/24 06:08:42;;;;;;;22.03;16.33;;;3.50;99.90;;;;;;5131715;23;20233;-93
2023/01/24 06:11:12;;;;;;;21.50;16.53;;;3.40;99.90;;;;;;5099424;28;20462;-94
2023/01/24 06:13:40;;;;;;;21.47;17.10;;;3.30;99.90;;;;;;5093027;28;20288;-92
2023/01/24 06:19:53;;;;;;;21.07;16.50;;;3.10;99.90;;;;;;5114847;28;20193;-93
2023/01/24 06:48:33;;;;;;;22.83;17.23;;;3.00;99.90;;;;;;5118609;28;20433;-86
2023/01/24 07:01:10;;;;;;;28.95;25.95;;;3.20;99.90;;;;;;5114372;28;20448;-87
2023/01/24 07:03:51;;;;;;;28.60;19.90;;;3.10;99.90;;;;;;5101504;28;20220;-87
2023/01/24 07:06:38;;;;;;;24.10;19.13;;;3.00;99.90;;;;;;5095124;28;20192;-87
2023/01/24 07:09:49;;;;;;;28.50;19.90;;;2.90;99.90;;;;;;5102999;28;20441;-87
2023/01/24 07:18:54;;;;;;;24.57;18.07;;;2.90;99.90;;;;;;5102482;28;20428;-86
2023/01/24 07:21:30;;;;;;;27.57;20.10;;;3.10;99.90;;;;;;5118057;28;20449;-85
2023/01/24 07:24:11;;;;;;;27.50;19.27;;;3.00;99.90;;;;;;5116050;28;20983;-87
2023/01/24 07:43:50;;;;;;;26.53;19.83;;;2.80;99.90;;;;;;5079063;28;20495;-94
2023/01/24 07:46:23;;;;;;;28.27;20.90;;;2.90;99.90;;;;;;5083475;28;21003;-95
2023/01/24 07:48:56;;;;;;;25.60;20.00;;;2.90;99.90;;;;;;5080396;28;20530;-95
2023/01/24 07:51:36;;;;;;;27.77;20.67;;;2.90;99.90;;;;;;5083856;28;20482;-94
2023/01/24 07:54:06;;;;;;;26.70;19.47;;;3.00;99.90;;;;;;5082010;28;20469;-92
2023/01/24 07:56:36;;;;;;;26.93;19.00;;;3.00;99.90;;;;;;5080240;28;20443;-93
2023/01/24 07:59:04;;;;;;;28.73;19.93;;;3.20;99.90;;;;;;5074652;28;20456;-93
2023/01/24 08:01:31;;;;;;;26.67;19.87;;;3.00;99.90;;;;;;5068951;28;20950;-93
2023/01/24 08:03:59;;;;;;;27.17;20.60;;;3.10;99.90;;;;;;5073757;28;20484;-95
2023/01/24 08:06:39;;;;;;;29.53;21.47;;;3.10;99.90;;;;;;5070409;28;20489;-93
2023/01/24 08:09:06;;;;;;;27.90;21.07;;;3.00;99.90;;;;;;5071337;28;20477;-93
2023/01/24 08:11:33;;;;;;;31.43;22.00;;;3.10;99.90;;;;;;5071490;28;20557;-93
2023/01/24 08:17:09;;;;;;;27.73;20.80;;;3.40;99.90;;;;;;5083111;28;20518;-92
2023/01/24 08:19:37;;;;;;;30.93;19.87;;;3.20;99.90;;;;;;5075442;28;20458;-93
2023/01/24 08:22:07;;;;;;;28.27;20.67;;;3.00;99.90;;;;;;5065817;28;20995;-93
2023/01/24 08:24:34;;;;;;;26.33;20.20;;;3.20;99.90;;;;;;5077374;28;20898;-91
2023/01/24 08:27:02;;;;;;;30.03;21.77;;;3.30;99.90;;;;;;5065783;28;20493;-93
2023/01/24 08:29:31;;;;;;;27.40;20.37;;;3.40;99.90;;;;;;5064748;28;20894;-91
2023/01/24 08:31:59;;;;;;;27.80;20.23;;;3.40;99.90;;;;;;5068779;28;20482;-93
2023/01/24 08:34:27;;;;;;;26.93;20.37;;;3.40;99.90;;;;;;5072285;28;20855;-92
2023/01/24 08:36:55;;;;;;;26.37;19.67;;;3.30;99.90;;;;;;5071820;28;20459;-91
2023/01/24 08:39:23;;;;;;;28.30;20.47;;;3.40;99.90;;;;;;5072000;28;20561;-93
2023/01/24 08:41:53;;;;;;;25.60;19.80;;;3.20;99.90;;;;;;5059602;28;20516;-93
2023/01/24 08:44:22;;;;;;;25.60;19.67;;;3.30;99.90;;;;;;5072021;28;20494;-95
2023/01/24 08:46:50;;;;;;;27.20;19.30;;;3.30;99.90;;;;;;5067066;28;20534;-92
2023/01/24 08:49:17;;;;;;;28.57;19.77;;;3.20;99.90;;;;;;5079318;28;20477;-92
2023/01/24 08:51:44;;;;;;;28.20;20.07;;;3.10;99.90;;;;;;5070916;28;20523;-93
2023/01/24 08:54:12;;;;;;;28.33;19.87;;;3.10;99.90;;;;;;5073000;28;21009;-91
2023/01/24 08:56:47;;;;;;;29.77;20.17;;;3.20;99.90;;;;;;5068924;28;20471;-91
2023/01/24 08:59:14;;;;;;;29.43;19.87;;;3.20;99.90;;;;;;5075137;28;20548;-93
2023/01/24 09:01:42;;;;;;;28.33;20.17;;;3.10;99.90;;;;;;5076820;28;20462;-92
2023/01/24 09:04:09;;;;;;;27.60;20.80;;;3.00;99.90;;;;;;5059969;28;20493;-93
2023/01/24 09:06:37;;;;;;;28.07;20.97;;;3.20;99.90;;;;;;5066937;28;20445;-92
2023/01/24 09:09:05;;;;;;;29.43;19.97;;;3.00;99.90;;;;;;5073171;28;20583;-92
2023/01/24 09:11:32;;;;;;;29.67;20.10;;;3.00;99.90;;;;;;5056763;28;20469;-93
2023/01/24 09:14:02;;;;;;;27.00;20.17;;;3.00;99.90;;;;;;5069509;28;20478;-93
2023/01/24 09:16:29;;;;;;;29.13;20.47;;;3.10;99.90;;;;;;5069824;28;21029;-91
2023/01/24 09:18:56;;;;;;;29.37;20.23;;;2.80;99.90;;;;;;5062978;28;20539;-92
2023/01/24 09:21:23;;;;;;;25.37;19.37;;;2.80;99.90;;;;;;5075838;28;20482;-91
2023/01/24 09:23:55;;;;;;;31.37;20.30;;;2.80;99.90;;;;;;5062637;28;20571;-93
2023/01/24 09:26:22;;;;;;;26.80;19.40;;;3.10;99.90;;;;;;5063588;28;20483;-92
2023/01/24 09:28:49;;;;;;;28.10;19.57;;;3.30;99.90;;;;;;5075732;28;20443;-92
2023/01/24 09:31:18;;;;;;;28.57;21.00;;;3.10;99.90;;;;;;5076074;28;20458;-91
2023/01/24 09:33:46;;;;;;;25.77;19.87;;;2.90;99.90;;;;;;5063277;28;20546;-91
2023/01/24 09:36:13;;;;;;;30.17;21.83;;;2.90;99.90;;;;;;5075949;28;20447;-91
2023/01/24 09:41:40;;;;;;;33.77;21.87;;;2.90;99.90;;;;;;5078132;28;20930;-92
2023/01/24 09:44:29;;;;;;;27.13;20.77;;;3.10;99.90;;;;;;5109980;28;20496;-92
2023/01/24 09:53:44;;;;;;;26.87;19.90;;;3.10;99.90;;;;;;5126869;27;20485;-94
2023/01/24 10:02:19;;;;;;;26.97;21.47;;;3.30;99.90;;;;;;5107386;28;20437;-94
2023/01/24 10:08:03;;;;;;;29.70;21.73;;;3.30;99.90;;;;;;5125280;27;20452;-94
2023/01/24 10:27:32;;;;;;;35.17;28.00;;;3.40;99.90;;;;;;5075999;28;20425;-83
2023/01/24 10:30:15;;;;;;;33.63;24.17;;;3.50;99.90;;;;;;5071662;28;20456;-85
2023/01/24 10:39:05;;;;;;;31.33;23.13;;;3.60;99.90;;;;;;5057205;28;20469;-82
2023/01/24 10:41:32;;;;;;;36.60;24.37;;;3.70;99.90;;;;;;5077724;28;20511;-83
2023/01/24 10:44:50;;;;;;;33.63;24.33;;;3.40;99.90;;;;;;5077728;28;20470;-82
2023/01/24 10:51:19;;;;;;;34.70;25.53;;;3.30;99.90;;;;;;5064263;28;20515;-83
2023/01/24 11:01:48;;;;;;;26.97;19.80;;;3.60;99.90;;;;;;4979334;28;20437;-82
2023/01/24 11:04:36;;;;;;;30.93;20.53;;;3.50;99.90;;;;;;4968782;28;20462;-84
2023/01/24 11:07:30;;;;;;;28.07;20.63;;;3.50;99.90;;;;;;4976684;28;20471;-85
2023/01/24 11:14:22;;;;;;;31.53;22.93;;;3.40;99.90;;;;;;5075990;28;20458;-85
2023/01/24 11:19:48;;;;;;;27.67;22.33;;;3.90;99.90;;;;;;5380550;22;20232;-93
2023/01/24 11:22:24;;;;;;;25.57;20.53;;;4.10;99.90;;;;;;5101041;28;20205;-93
2023/01/24 11:25:00;;;;;;;25.53;20.10;;;4.00;99.90;;;;;;5100076;28;20232;-95
2023/01/24 11:27:32;;;;;;;27.00;20.60;;;4.20;99.90;;;;;;5092454;28;20232;-95
2023/01/24 11:30:17;;;;;;;28.47;22.10;;;4.00;99.90;;;;;;5066825;28;20218;-93
2023/01/24 11:33:03;;;;;;;27.60;20.87;;;3.90;99.90;;;;;;5073062;28;20375;-92
2023/01/24 11:35:36;;;;;;;26.67;20.93;;;3.90;99.90;;;;;;5059340;28;20232;-93
2023/01/24 11:38:24;;;;;;;25.90;20.67;;;4.00;99.90;;;;;;5060600;28;20262;-93
2023/01/24 11:41:06;;;;;;;29.88;26.77;;;3.80;99.90;;;;;;5085934;28;20474;-94
2023/01/24 11:44:18;;;;;;;30.23;21.83;;;4.10;99.90;;;;;;5062767;28;20226;-92
2023/01/24 11:46:57;;;;;;;28.07;22.07;;;3.70;99.90;;;;;;5076457;28;20271;-93
2023/01/24 11:49:46;;;;;;;27.73;20.77;;;3.90;99.90;;;;;;5094696;28;20272;-92
2023/01/24 11:52:35;;;;;;;26.83;19.83;;;3.80;99.90;;;;;;5080584;28;20241;-91
2023/01/24 11:55:14;;;;;;;29.73;21.37;;;3.90;99.90;;;;;;5079412;28;20209;-94
2023/01/24 11:57:52;;;;;;;27.67;21.93;;;4.00;99.90;;;;;;5102695;28;20273;-92
2023/01/24 12:00:29;;;;;;;32.40;21.43;;;3.90;99.90;;;;;;5093580;28;20213;-93
2023/01/24 12:03:38;;;;;;;27.53;20.90;;;3.60;99.90;;;;;;5094740;28;20249;-92
2023/01/24 12:06:20;;;;;;;29.80;21.10;;;3.50;99.90;;;;;;5027735;28;20202;-92
2023/01/24 12:09:06;;;;;;;27.43;20.00;;;3.60;99.90;;;;;;5076635;28;20214;-93
2023/01/24 12:11:43;;;;;;;24.13;18.80;;;3.80;99.90;;;;;;5101445;28;20201;-94
2023/01/24 12:14:28;;;;;;;26.07;19.00;;;3.90;99.90;;;;;;5095205;28;20289;-93
2023/01/24 12:17:04;;;;;;;26.60;19.60;;;3.70;99.90;;;;;;5080965;28;20209;-94
2023/01/24 12:19:51;;;;;;;26.40;18.20;;;3.80;99.90;;;;;;5072992;28;20897;-93
2023/01/24 12:22:24;;;;;;;25.57;19.70;;;3.90;99.90;;;;;;5067310;28;20486;-92
2023/01/24 12:25:01;;;;;;;24.97;18.03;;;4.00;99.90;;;;;;5065515;28;20226;-91
2023/01/24 12:27:42;;;;;;;27.83;19.37;;;3.80;99.90;;;;;;5069370;28;20232;-93
2023/01/24 12:30:19;;;;;;;27.87;18.47;;;3.90;99.90;;;;;;5080288;28;20205;-92
2023/01/24 12:33:00;;;;;;;26.27;23.45;;;3.90;99.90;;;;;;5077890;28;20863;-93
2023/01/24 12:35:33;;;;;;;25.17;20.10;;;4.10;99.90;;;;;;5053549;28;20235;-93
2023/01/24 12:38:09;;;;;;;26.37;19.60;;;4.00;99.90;;;;;;5079348;28;20225;-93
2023/01/24 12:40:51;;;;;;;30.17;19.43;;;4.20;99.90;;;;;;5081277;28;20205;-91
2023/01/24 12:43:27;;;;;;;22.57;18.67;;;4.20;99.90;;;;;;5078657;28;20230;-92
2023/01/24 12:46:16;;;;;;;29.73;20.80;;;3.90;99.90;;;;;;5082476;28;20264;-92
2023/01/24 12:49:00;;;;;;;24.17;19.43;;;4.00;99.90;;;;;;5076199;28;20553;-93
2023/01/24 12:51:34;;;;;;;24.00;19.67;;;4.20;99.90;;;;;;5075610;28;20209;-91
2023/01/24 12:54:07;;;;;;;23.27;19.03;;;4.30;99.90;;;;;;5058214;28;20226;-89
2023/01/24 12:56:48;;;;;;;25.47;19.07;;;4.10;99.90;;;;;;5047683;28;20237;-91
2023/01/24 12:59:21;;;;;;;23.33;19.57;;;4.10;99.90;;;;;;5049207;28;20249;-90
2023/01/24 13:02:26;;;;;;;25.80;18.70;;;4.10;99.90;;;;;;5067851;28;20994;-93
2023/01/24 13:05:07;;;;;;;27.07;18.37;;;4.10;99.90;;;;;;5060321;28;20325;-92
2023/01/24 13:07:51;;;;;;;29.87;20.13;;;4.10;99.90;;;;;;5078659;28;20263;-93
2023/01/24 13:10:29;;;;;;;24.23;17.73;;;4.10;99.90;;;;;;5080951;28;20657;-95
2023/01/24 13:12:59;;;;;;;21.37;17.40;;;4.00;99.90;;;;;;5066728;28;20257;-94
2023/01/24 13:19:01;;;;;;;21.00;17.40;;;3.50;99.90;;;;;;5061590;28;20211;-92
2023/01/24 13:21:39;;;;;;;25.70;18.20;;;3.50;99.90;;;;;;5065852;28;20230;-92
2023/01/24 13:24:33;;;;;;;24.00;19.20;;;3.60;99.90;;;;;;5076274;28;20489;-93
2023/01/24 13:27:23;;;;;;;26.43;23.73;;;3.60;99.90;;;;;;5073953;28;20430;-92
2023/01/24 13:30:20;;;;;;;22.00;18.93;;;4.00;99.90;;;;;;5079728;28;20617;-95
2023/01/24 13:32:50;;;;;;;25.47;19.20;;;3.80;99.90;;;;;;5083108;28;20257;-93
2023/01/24 13:35:23;;;;;;;28.83;19.17;;;3.80;99.90;;;;;;5103722;28;20214;-93
2023/01/24 13:37:54;;;;;;;29.10;20.83;;;3.90;99.90;;;;;;5086113;28;20724;-92
2023/01/24 13:40:30;;;;;;;27.23;21.00;;;4.00;99.90;;;;;;5087466;28;20220;-92
2023/01/24 13:42:59;;;;;;;27.57;19.97;;;4.00;99.90;;;;;;5090287;28;20252;-94
2023/01/24 13:46:01;;;;;;;23.67;18.70;;;3.60;99.90;;;;;;5084193;28;20285;-94
2023/01/24 13:48:47;;;;;;;22.37;19.03;;;3.70;99.90;;;;;;5001282;28;20275;-92
2023/01/24 13:51:51;;;;;;;28.07;19.30;;;4.00;99.90;;;;;;5074312;28;20210;-91
2023/01/24 13:54:21;;;;;;;29.42;25.65;;;4.10;99.90;;;;;;5064651;28;20460;-94
2023/01/24 14:00:36;;;;;;;23.10;19.23;;;3.90;99.90;;;;;;5081682;28;20201;-93
2023/01/24 14:06:53;;;;;;;24.37;18.17;;;4.00;99.90;;;;;;5069101;28;20269;-91
2023/01/24 14:09:24;;;;;;;21.73;17.57;;;3.60;99.90;;;;;;5082423;28;20307;-91
2023/01/24 14:11:58;;;;;;;23.00;17.47;;;3.60;99.90;;;;;;5082377;28;20237;-93
2023/01/24 14:14:37;;;;;;;23.27;17.93;;;3.80;99.90;;;;;;5086232;28;20488;-93
2023/01/24 14:17:51;;;;;;;25.47;18.87;;;4.00;99.90;;;;;;5089164;28;20598;-92
2023/01/24 14:20:24;;;;;;;25.37;17.97;;;4.10;99.90;;;;;;5077444;28;20221;-91
2023/01/24 14:22:58;;;;;;;23.70;18.90;;;3.60;99.90;;;;;;5066451;28;20249;-92
2023/01/24 14:25:49;;;;;;;22.53;18.13;;;3.50;99.90;;;;;;5060892;28;20481;-92
2023/01/24 14:28:26;;;;;;;27.47;19.50;;;3.60;99.90;;;;;;5065605;28;20455;-93
2023/01/24 14:31:03;;;;;;;26.20;21.10;;;3.80;99.90;;;;;;5079268;28;20208;-91
2023/01/24 14:33:51;;;;;;;27.83;20.93;;;4.10;99.90;;;;;;5081874;28;20233;-92
2023/01/24 14:36:29;;;;;;;31.97;20.83;;;4.30;99.90;;;;;;5085477;28;20884;-91
2023/01/24 14:39:22;;;;;;;26.13;21.23;;;4.40;99.90;;;;;;5057252;28;20285;-93
2023/01/24 14:41:53;;;;;;;28.33;21.27;;;4.40;99.90;;;;;;5068331;28;20206;-92
2023/01/24 14:44:25;;;;;;;29.50;21.57;;;4.40;99.90;;;;;;5095261;28;20233;-92
2023/01/24 14:46:58;;;;;;;27.93;21.27;;;4.30;99.90;;;;;;5092330;28;20194;-92
2023/01/24 14:49:31;;;;;;;25.70;20.30;;;4.30;99.90;;;;;;5091001;28;20225;-93
2023/01/24 14:52:17;;;;;;;24.67;19.30;;;3.90;99.90;;;;;;5073231;28;20205;-91
2023/01/24 14:54:46;;;;;;;26.03;19.87;;;3.60;99.90;;;;;;5093693;28;20233;-93
2023/01/24 14:57:22;;;;;;;24.87;18.13;;;3.70;99.90;;;;;;5077402;28;20209;-91
2023/01/24 15:00:16;;;;;;;22.27;18.20;;;3.90;99.90;;;;;;5076528;28;20217;-92
2023/01/24 15:02:53;;;;;;;31.03;17.97;;;3.80;99.90;;;;;;5012949;28;20260;-92
2023/01/24 15:05:28;;;;;;;27.60;20.50;;;3.90;99.90;;;;;;5067572;28;20482;-93
2023/01/24 15:07:59;;;;;;;23.27;20.33;;;4.00;99.90;;;;;;5090948;28;20217;-93
2023/01/24 15:10:30;;;;;;;24.90;19.73;;;3.80;99.90;;;;;;5084788;28;20482;-93
2023/01/24 15:13:08;;;;;;;27.13;21.20;;;4.00;99.90;;;;;;5084675;28;20217;-95
2023/01/24 15:15:53;;;;;;;28.30;21.13;;;3.90;99.90;;;;;;5080850;28;20446;-91
2023/01/24 15:18:42;;;;;;;26.07;19.63;;;3.80;99.90;;;;;;5091258;28;20264;-93
2023/01/24 15:21:35;;;;;;;26.67;20.17;;;4.00;99.90;;;;;;5063710;28;20220;-92
2023/01/24 15:24:20;;;;;;;27.60;19.30;;;4.10;99.90;;;;;;5061714;28;20305;-90
2023/01/24 15:26:48;;;;;;;28.97;21.07;;;4.30;99.90;;;;;;5102020;28;20235;-90
2023/01/24 15:29:44;;;;;;;33.97;24.07;;;4.00;99.90;;;;;;5074593;28;20703;-93
2023/01/24 15:32:23;;;;;;;26.57;21.30;;;3.80;99.90;;;;;;5100828;28;20458;-92
2023/01/24 15:34:50;;;;;;;30.70;22.00;;;3.80;99.90;;;;;;5088674;28;20659;-95
2023/01/24 15:37:17;;;;;;;31.73;23.40;;;3.90;99.90;;;;;;5089735;28;20276;-94
2023/01/24 15:40:02;;;;;;;28.27;22.67;;;3.90;99.90;;;;;;5097017;28;20431;-92
2023/01/24 15:45:20;;;;;;;30.40;24.37;;;3.60;99.90;;;;;;5081456;28;20217;-95
2023/01/24 15:48:25;;;;;;;29.40;23.47;;;3.60;99.90;;;;;;5099788;28;20193;-93
2023/01/24 15:53:55;;;;;;;31.30;23.00;;;3.80;99.90;;;;;;5113958;28;20453;-93
2023/01/24 15:56:41;;;;;;;29.70;23.20;;;3.70;99.90;;;;;;5090080;28;20443;-94
2023/01/24 15:59:39;;;;;;;36.47;24.30;;;3.80;99.90;;;;;;5082549;28;20446;-92
2023/01/24 16:04:57;;;;;;;35.00;25.07;;;3.50;99.90;;;;;;5109034;28;20560;-93
2023/01/24 16:07:25;;;;;;;34.13;25.57;;;3.60;99.90;;;;;;5085932;28;20202;-93
2023/01/24 16:09:55;;;;;;;32.67;25.67;;;3.50;99.90;;;;;;5098887;28;20301;-93
2023/01/24 16:18:37;;;;;;;31.53;24.77;;;3.30;99.90;;;;;;5102336;28;20441;-94
2023/01/24 16:21:05;;;;;;;35.63;25.20;;;3.50;99.90;;;;;;5077783;28;20839;-92
2023/01/24 16:38:05;;;;;;;45.40;36.53;;;3.60;99.90;;;;;;5050343;28;20443;-95
2023/01/24 16:43:59;;;;;;;39.60;28.23;;;3.90;99.90;;;;;;5099705;23;20217;-94
2023/01/24 16:46:30;;;;;;;39.53;27.23;;;3.80;99.90;;;;;;5100057;28;20240;-92
2023/01/24 16:48:57;;;;;;;35.90;26.30;;;3.70;99.90;;;;;;5105631;28;20464;-92
2023/01/24 16:51:27;;;;;;;41.33;29.60;;;3.80;99.90;;;;;;5106148;28;20243;-92
2023/01/24 16:53:59;;;;;;;38.10;28.43;;;3.90;99.90;;;;;;5105099;28;20242;-94
2023/01/24 17:30:28;;;;;;;39.50;27.90;;;3.50;99.90;;;;;;5096079;28;20415;-85
2023/01/24 17:42:13;;;;;;;43.30;31.00;;;3.20;99.90;;;;;;5251010;22;20489;-92
2023/01/24 17:44:42;;;;;;;45.40;32.07;;;3.20;99.90;;;;;;5102421;28;20522;-91
2023/01/24 17:47:11;;;;;;;47.47;33.50;;;3.40;99.90;;;;;;5089306;28;20468;-93
2023/01/24 17:49:39;;;;;;;53.07;32.03;;;3.40;99.90;;;;;;5105575;28;20257;-91
2023/01/24 17:52:07;;;;;;;42.33;30.53;;;3.50;99.90;;;;;;5092337;28;20997;-91
2023/01/24 17:54:35;;;;;;;47.58;42.10;;;3.70;99.90;;;;;;5092788;28;20503;-95
2023/01/24 17:57:18;;;;;;;47.67;35.77;;;3.80;99.90;;;;;;5099331;28;20258;-95
2023/01/24 17:59:46;;;;;;;42.10;30.80;;;3.70;99.90;;;;;;5100504;28;20611;-92
2023/01/24 18:02:17;;;;;;;44.13;30.93;;;3.30;99.90;;;;;;5102000;28;20454;-95
2023/01/24 18:04:44;;;;;;;42.47;30.07;;;3.20;99.90;;;;;;5096519;28;20516;-90
2023/01/24 18:07:11;;;;;;;45.80;32.00;;;3.40;99.90;;;;;;5085606;28;20237;-90
2023/01/24 18:09:38;;;;;;;45.23;31.13;;;3.50;99.90;;;;;;5093395;28;20817;-92
2023/01/24 18:12:05;;;;;;;41.67;31.43;;;3.50;99.90;;;;;;5085222;28;20458;-88
2023/01/24 18:14:34;;;;;;;41.57;31.50;;;3.70;99.90;;;;;;5088523;28;20307;-90
2023/01/24 18:17:01;;;;;;;44.40;34.85;;;3.80;99.90;;;;;;5082919;28;20431;-92
2023/01/24 18:19:28;;;;;;;42.27;31.23;;;3.50;99.90;;;;;;5093968;28;20208;-92
2023/01/24 18:21:55;;;;;;;42.33;30.93;;;3.40;99.90;;;;;;5095331;28;20545;-91
2023/01/24 18:24:23;;;;;;;40.43;30.17;;;3.40;99.90;;;;;;5095825;28;20299;-90
2023/01/24 18:26:57;;;;;;;42.10;30.67;;;3.40;99.90;;;;;;5096116;28;20292;-91
2023/01/24 18:29:30;;;;;;;46.97;32.87;;;3.20;99.90;;;;;;5096634;28;20953;-90
2023/01/24 18:31:59;;;;;;;44.20;32.57;;;3.20;99.90;;;;;;5091961;28;20582;-90
2023/01/24 18:34:26;;;;;;;43.93;30.73;;;3.20;99.90;;;;;;5094703;28;20468;-93
2023/01/24 18:36:53;;;;;;;44.83;33.00;;;3.30;99.90;;;;;;5078691;28;20457;-93
2023/01/24 18:39:20;;;;;;;42.57;31.70;;;3.20;99.90;;;;;;5062754;28;20439;-90
2023/01/24 18:41:47;;;;;;;47.97;41.28;;;3.20;99.90;;;;;;5082140;28;20446;-92
2023/01/24 18:44:16;;;;;;;45.17;35.40;;;3.30;99.90;;;;;;5076733;28;20593;-90
2023/01/24 18:46:44;;;;;;;46.77;32.93;;;3.10;99.90;;;;;;5088895;28;20226;-92
2023/01/24 18:49:12;;;;;;;43.23;32.40;;;3.20;99.90;;;;;;5087618;28;20553;-92
2023/01/24 18:51:43;;;;;;;45.37;33.23;;;3.20;99.90;;;;;;5075062;28;20447;-93
2023/01/24 18:54:11;;;;;;;42.20;32.37;;;3.20;99.90;;;;;;5074420;28;20574;-92
2023/01/24 18:56:37;;;;;;;41.83;31.60;;;3.50;99.90;;;;;;5094466;28;20458;-94
2023/01/24 18:59:04;;;;;;;40.43;30.90;;;3.50;99.90;;;;;;5094752;28;20544;-91
2023/01/24 19:01:33;;;;;;;42.93;31.47;;;3.60;99.90;;;;;;5094613;28;20434;-90
2023/01/24 19:04:02;;;;;;;44.77;32.47;;;3.80;99.90;;;;;;5081317;28;20485;-91
2023/01/24 19:06:33;;;;;;;47.47;42.38;;;3.30;99.90;;;;;;5094152;28;20572;-89
2023/01/24 19:09:03;;;;;;;44.73;33.57;;;3.40;99.90;;;;;;5095044;28;20232;-90
2023/01/24 19:11:31;;;;;;;42.20;32.13;;;3.20;99.90;;;;;;5085410;28;20545;-91
2023/01/24 19:13:59;;;;;;;43.83;33.07;;;3.00;99.90;;;;;;5091718;28;20461;-92
2023/01/24 19:16:26;;;;;;;45.47;32.27;;;3.00;99.90;;;;;;5095294;28;20446;-90
2023/01/24 19:18:55;;;;;;;40.33;31.27;;;3.00;99.90;;;;;;5094888;28;20460;-92
2023/01/24 19:21:26;;;;;;;47.07;33.33;;;3.10;99.90;;;;;;5090968;28;20446;-94
2023/01/24 19:27:04;;;;;;;46.27;32.03;;;3.40;99.90;;;;;;5108379;28;20539;-93
2023/01/24 19:29:31;;;;;;;42.07;31.50;;;3.50;99.90;;;;;;5101423;28;20461;-93
2023/01/24 19:32:00;;;;;;;50.42;45.10;;;3.40;99.90;;;;;;5089813;28;20433;-93
2023/01/24 19:34:30;;;;;;;45.10;34.27;;;3.70;99.90;;;;;;5094733;28;20253;-93
2023/01/24 19:37:05;;;;;;;44.50;31.87;;;3.30;99.90;;;;;;5094655;28;20227;-93
2023/01/24 19:39:34;;;;;;;44.53;32.47;;;3.30;99.90;;;;;;5085179;28;20446;-94
2023/01/24 19:42:38;;;;;;;40.53;30.53;;;2.90;99.90;;;;;;5094694;28;20439;-93